Bobcat — WDB5142 — position and weather

sailwx.info

Track history (hours):
 
Tides and Currents Weather Stations Pressure Air Temp Water Temp Dewpoint Dewpoint Depression Visibility Wind Speed Wind Dir Waves Ship Positions

Bobcat

Owner: TAURUS MARINE, SAN FRANCISCO, CA. More information available from US FCC via Universal Licensing System and Coast Guard Vessel Documentation Center.

Last reported at 2018-Feb-27 22:31 UTC. Time now 2018-Apr-23 05:26 UTC.
Position N 38°05' W 122°15'.
Warning: this ship's position is 54 days out of date.

; draft 2 m.

Type: Towing. MMSI: 366906360.

Date/timePositionNaut miles runAvg speedWind from/ knotsBaromVisibWave heightAir tempDewpointWater temp
2018-Feb-27 22:31N 38°05' W 122°15'0 0.1
2018-Feb-27 22:16N 38°05' W 122°15'0 0.2
2018-Feb-27 21:57N 38°05' W 122°16'0 0.1
2018-Feb-27 21:20N 38°05' W 122°15'1 0.7
2018-Feb-27 20:11N 38°05' W 122°15'1 5.5
2018-Feb-27 19:58N 38°04' W 122°14'4 5.2
2018-Feb-27 19:11N 38°02' W 122°09'1 5.4
2018-Feb-27 18:59N 38°02' W 122°08'0 0.3
2018-Feb-27 17:31N 38°02' W 122°07'0 0.5
2018-Feb-27 17:29N 38°02' W 122°07'0 0.0
2018-Feb-27 15:13N 38°02' W 122°08'0 0.2
2018-Feb-27 14:32N 38°02' W 122°08'0 5.8
2018-Feb-27 14:29N 38°02' W 122°08'3 6.0
2018-Feb-27 14:00N 38°03' W 122°11'3 5.7
2018-Feb-27 13:30N 38°04' W 122°15'1 3.0
2018-Feb-27 13:00N 38°05' W 122°16'0 0.0
2018-Feb-27 12:30N 38°05' W 122°16'  
2018-Feb-21 18:10N 38°05' W 122°16'0 0.0
2018-Feb-21 17:59N 38°05' W 122°16'0 0.0
2018-Feb-20 22:15N 38°05' W 122°15'2 7.2
2018-Feb-20 22:00N 38°04' W 122°14'4 7.5
2018-Feb-20 21:30N 38°02' W 122°10'2 0.3
2018-Feb-20 14:18N 38°02' W 122°07'2 7.1
2018-Feb-20 14:00N 38°02' W 122°10'4 8.0
2018-Feb-20 13:30N 38°04' W 122°15'2 2.9
2018-Feb-20 12:58N 38°05' W 122°16'  
Track history (hours):
 
Tides and Currents Weather Stations Pressure Air Temp Water Temp Dewpoint Dewpoint Depression Visibility Wind Speed Wind Dir Waves Ship Positions

Bobcat

Owner: TAURUS MARINE, SAN FRANCISCO, CA. More information available from US FCC via Universal Licensing System and Coast Guard Vessel Documentation Center.

Last reported at 2018-Feb-27 22:31 UTC. Time now 2018-Apr-23 05:26 UTC.
Position N 38°05' W 122°15'.
Warning: this ship's position is 54 days out of date.

; draft 2 m.

Type: Towing. MMSI: 366906360.

Date/timePositionNaut miles runAvg speedWind from/ knotsBaromVisibWave heightAir tempDewpointWater temp
2018-Feb-27 22:31N 38°05' W 122°15'0 0.1
2018-Feb-27 22:16N 38°05' W 122°15'0 0.2
2018-Feb-27 21:57N 38°05' W 122°16'0 0.1
2018-Feb-27 21:20N 38°05' W 122°15'1 0.7
2018-Feb-27 20:11N 38°05' W 122°15'1 5.5
2018-Feb-27 19:58N 38°04' W 122°14'4 5.2
2018-Feb-27 19:11N 38°02' W 122°09'1 5.4
2018-Feb-27 18:59N 38°02' W 122°08'0 0.3
2018-Feb-27 17:31N 38°02' W 122°07'0 0.5
2018-Feb-27 17:29N 38°02' W 122°07'0 0.0
2018-Feb-27 15:13N 38°02' W 122°08'0 0.2
2018-Feb-27 14:32N 38°02' W 122°08'0 5.8
2018-Feb-27 14:29N 38°02' W 122°08'3 6.0
2018-Feb-27 14:00N 38°03' W 122°11'3 5.7
2018-Feb-27 13:30N 38°04' W 122°15'1 3.0
2018-Feb-27 13:00N 38°05' W 122°16'0 0.0
2018-Feb-27 12:30N 38°05' W 122°16'  
2018-Feb-21 18:10N 38°05' W 122°16'0 0.0
2018-Feb-21 17:59N 38°05' W 122°16'0 0.0
2018-Feb-20 22:15N 38°05' W 122°15'2 7.2
2018-Feb-20 22:00N 38°04' W 122°14'4 7.5
2018-Feb-20 21:30N 38°02' W 122°10'2 0.3
2018-Feb-20 14:18N 38°02' W 122°07'2 7.1
2018-Feb-20 14:00N 38°02' W 122°10'4 8.0
2018-Feb-20 13:30N 38°04' W 122°15'2 2.9
2018-Feb-20 12:58N 38°05' W 122°16'  

Dump ship's entire track history